Time;durP1;ratioP1;P1;durP2;ratioP2;P2;SDS_P1;SDS_P2;PMS_P1;PMS_P2;Temp;Humidity;BMP_temperature;BMP_pressure;BME280_temperature;BME280_humidity;BME280_pressure;Samples;Min_cycle;Max_cycle;Signal;HPM_P1;HPM_P2
2023/02/19 00:01:39;;;;;;;1.90;1.13;;;;;;;11.79;97.15;100669.19;5072272;28;20446;-50
2023/02/19 00:04:17;;;;;;;1.00;0.90;;;;;;;11.82;96.40;100673.56;5061522;28;20808;-50
2023/02/19 00:06:45;;;;;;;4.57;0.77;;;;;;;11.88;96.64;100670.72;5069231;28;20479;-50
2023/02/19 00:09:14;;;;;;;1.37;1.27;;;;;;;11.93;96.18;100660.81;5065881;28;20485;-50
2023/02/19 00:11:42;;;;;;;1.07;0.70;;;;;;;11.78;96.34;100663.84;5072004;28;20890;-50
2023/02/19 00:14:13;;;;;;;0.90;0.80;;;;;;;11.88;95.87;100637.88;5072071;28;20536;-50
2023/02/19 00:16:39;;;;;;;1.40;1.10;;;;;;;11.93;96.16;100634.19;5071716;28;20990;-50
2023/02/19 00:19:12;;;;;;;1.10;0.90;;;;;;;11.73;96.37;100645.34;5071987;28;20453;-50
2023/02/19 00:21:38;;;;;;;4.27;1.30;;;;;;;11.80;96.47;100649.63;5072111;28;20448;-50
2023/02/19 00:24:06;;;;;;;0.83;0.83;;;;;;;11.76;96.77;100647.91;5067638;28;20454;-49
2023/02/19 00:26:33;;;;;;;1.23;1.13;;;;;;;11.85;96.00;100657.47;5046034;28;20466;-50
2023/02/19 00:29:00;;;;;;;2.10;1.43;;;;;;;11.70;97.07;100657.88;5067720;28;20481;-50
2023/02/19 00:31:30;;;;;;;1.40;1.30;;;;;;;11.89;96.39;100655.59;5067015;28;20512;-50
2023/02/19 00:34:01;;;;;;;0.80;0.80;;;;;;;12.00;95.90;100661.50;5066166;28;20446;-50
2023/02/19 00:36:29;;;;;;;1.93;1.03;;;;;;;11.87;96.21;100660.97;5071539;28;20987;-50
2023/02/19 00:38:56;;;;;;;0.87;0.87;;;;;;;11.85;96.03;100670.81;5068121;28;20450;-50
2023/02/19 00:41:23;;;;;;;0.83;0.83;;;;;;;11.84;97.05;100669.94;5071764;28;20965;-50
2023/02/19 00:43:57;;;;;;;1.27;1.27;;;;;;;11.92;96.59;100675.03;5071529;28;20450;-50
2023/02/19 00:46:29;;;;;;;1.87;0.80;;;;;;;11.85;96.89;100676.13;5071886;28;20465;-50
2023/02/19 00:48:56;;;;;;;0.90;0.60;;;;;;;11.83;96.50;100648.66;5071454;28;20492;-50
2023/02/19 00:51:25;;;;;;;0.60;0.40;;;;;;;12.01;96.57;100617.97;5071562;28;20453;-50
2023/02/19 00:53:52;;;;;;;0.77;0.77;;;;;;;11.89;96.11;100637.81;5055712;28;20496;-50
2023/02/19 00:56:20;;;;;;;0.70;0.70;;;;;;;12.02;95.42;100646.34;5071488;28;20469;-50
2023/02/19 00:58:46;;;;;;;1.57;1.47;;;;;;;11.89;96.16;100636.94;5060586;28;20946;-50
2023/02/19 01:01:14;;;;;;;1.53;0.70;;;;;;;11.81;96.20;100637.19;5074101;28;20446;-50
2023/02/19 01:03:40;;;;;;;0.50;0.50;;;;;;;11.66;96.94;100657.09;5066599;28;21024;-50
2023/02/19 01:06:09;;;;;;;0.50;0.40;;;;;;;11.76;96.83;100653.25;5075298;28;20839;-50
2023/02/19 01:08:35;;;;;;;0.60;0.60;;;;;;;11.85;97.20;100652.16;5074892;28;20543;-50
2023/02/19 01:11:04;;;;;;;0.67;0.67;;;;;;;11.78;97.27;100653.19;5075196;28;20454;-50
2023/02/19 01:13:30;;;;;;;0.50;0.50;;;;;;;11.69;98.11;100648.13;5075110;28;20450;-50
2023/02/19 01:16:06;;;;;;;0.70;0.70;;;;;;;11.74;98.04;100644.44;5074863;28;20959;-50
2023/02/19 01:18:33;;;;;;;0.60;0.50;;;;;;;11.81;98.00;100634.53;5065449;28;20457;-50
2023/02/19 01:21:05;;;;;;;6.60;0.83;;;;;;;11.83;97.95;100640.69;5074753;28;20445;-50
2023/02/19 01:23:32;;;;;;;2.10;0.57;;;;;;;11.69;98.41;100641.03;5075109;28;20446;-50
2023/02/19 01:25:59;;;;;;;0.57;0.53;;;;;;;11.64;99.59;100637.59;5061013;28;21006;-50
2023/02/19 01:28:25;;;;;;;0.70;0.40;;;;;;;11.67;99.84;100644.66;5070305;28;20520;-50
2023/02/19 01:30:51;;;;;;;0.80;0.80;;;;;;;11.67;100.00;100637.53;5070045;28;20456;-50
2023/02/19 01:33:18;;;;;;;0.67;0.67;;;;;;;11.81;99.14;100630.06;5063697;28;20446;-50
2023/02/19 01:35:44;;;;;;;1.47;1.37;;;;;;;11.83;99.10;100632.69;5063515;28;20446;-50
2023/02/19 01:38:11;;;;;;;0.50;0.50;;;;;;;11.64;99.88;100642.03;5074722;28;20480;-50
2023/02/19 01:40:37;;;;;;;1.33;0.60;;;;;;;11.73;99.54;100631.16;5074520;28;20450;-50
2023/02/19 01:43:10;;;;;;;0.70;0.60;;;;;;;11.64;99.72;100640.25;5074499;28;20454;-50
2023/02/19 01:45:41;;;;;;;0.60;0.60;;;;;;;11.62;100.00;100636.78;5074393;28;20442;-50
2023/02/19 01:48:14;;;;;;;0.40;0.40;;;;;;;11.47;100.00;100622.09;5074399;28;20438;-49
2023/02/19 01:50:48;;;;;;;2.20;1.03;;;;;;;11.73;99.52;100623.16;5064403;28;20450;-50
2023/02/19 01:53:20;;;;;;;0.70;0.70;;;;;;;11.63;99.18;100611.88;5074838;28;20445;-50
2023/02/19 01:55:50;;;;;;;0.50;0.50;;;;;;;11.68;99.72;100609.13;5074069;28;20473;-50
2023/02/19 01:58:17;;;;;;;0.60;0.47;;;;;;;11.65;99.04;100606.50;5062172;28;20486;-50
2023/02/19 02:00:43;;;;;;;1.10;0.40;;;;;;;11.54;99.97;100615.69;5074223;28;20446;-50
2023/02/19 02:03:11;;;;;;;0.60;0.60;;;;;;;11.63;98.62;100603.91;5073954;28;21017;-50
2023/02/19 02:05:53;;;;;;;2.83;0.60;;;;;;;11.65;98.88;100596.78;5056626;28;20503;-50
2023/02/19 02:11:05;;;;;;;2.63;1.20;;;;;;;11.67;99.09;100589.59;5073002;28;20911;-50
2023/02/19 02:13:33;;;;;;;1.23;0.60;;;;;;;11.53;99.06;100587.34;5072373;28;20792;-50
2023/02/19 02:16:28;;;;;;;0.50;0.33;;;;;;;11.73;98.82;100583.22;5073789;28;21021;-50
2023/02/19 02:19:06;;;;;;;0.60;0.47;;;;;;;11.65;98.25;100582.56;5073842;28;20452;-50
2023/02/19 02:21:39;;;;;;;0.97;0.87;;;;;;;11.55;98.92;100574.84;5068796;28;20554;-50
2023/02/19 02:24:23;;;;;;;0.67;0.50;;;;;;;11.55;98.78;100573.97;5066040;28;20901;-50
2023/02/19 02:27:17;;;;;;;0.40;0.40;;;;;;;11.67;98.32;100578.09;5063117;28;20466;-50
2023/02/19 02:30:17;;;;;;;0.57;0.40;;;;;;;11.62;98.90;100570.19;5072817;28;20535;-49
2023/02/19 02:32:59;;;;;;;0.90;0.80;;;;;;;11.66;98.67;100566.56;5061618;28;20541;-50
2023/02/19 02:35:31;;;;;;;0.50;0.50;;;;;;;11.68;97.94;100569.19;5073460;28;20495;-50
2023/02/19 02:38:06;;;;;;;1.47;1.37;;;;;;;11.79;97.36;100575.09;5061047;28;20542;-50
2023/02/19 02:40:33;;;;;;;0.40;0.30;;;;;;;11.64;97.24;100565.69;5073154;28;20445;-50
2023/02/19 02:43:00;;;;;;;0.50;0.40;;;;;;;11.80;96.70;100558.22;5073524;28;20525;-50
2023/02/19 02:45:36;;;;;;;0.60;0.50;;;;;;;11.76;96.30;100569.81;5073238;28;20442;-50
2023/02/19 02:48:17;;;;;;;2.50;0.83;;;;;;;11.71;97.19;100572.63;5073190;28;20877;-50
2023/02/19 02:51:17;;;;;;;1.07;0.77;;;;;;;11.72;96.67;100569.03;5060614;28;20492;-50
2023/02/19 02:56:40;;;;;;;0.50;0.40;;;;;;;11.86;96.03;100556.22;5072888;28;20470;-50
2023/02/19 02:59:10;;;;;;;0.70;0.50;;;;;;;11.79;95.55;100553.81;5061576;28;20961;-51
2023/02/19 03:04:31;;;;;;;0.63;0.60;;;;;;;11.63;96.83;100571.06;5064056;28;20614;-50
2023/02/19 03:07:03;;;;;;;0.50;0.40;;;;;;;11.68;97.23;100578.03;5071251;28;20470;-50
2023/02/19 03:09:39;;;;;;;0.43;0.40;;;;;;;11.61;98.13;100572.91;5072553;28;21006;-50
2023/02/19 03:20:42;;;;;;;0.40;0.30;;;;;;;11.65;98.70;100575.47;5062748;28;20458;-50
2023/02/19 03:23:11;;;;;;;0.57;0.40;;;;;;;11.54;99.85;100569.56;5072417;28;21010;-50
2023/02/19 03:31:18;;;;;;;3.17;0.43;;;;;;;11.69;97.43;100568.25;5069488;28;20819;-50
2023/02/19 03:33:49;;;;;;;0.50;0.40;;;;;;;11.56;98.09;100567.72;5065229;28;20822;-50
2023/02/19 03:36:17;;;;;;;2.10;0.50;;;;;;;11.54;98.25;100564.25;5072793;28;20482;-49
2023/02/19 03:38:56;;;;;;;0.60;0.60;;;;;;;11.60;97.42;100568.50;5071974;28;20454;-49
2023/02/19 03:41:31;;;;;;;0.50;0.40;;;;;;;11.65;96.34;100574.56;5064783;28;20451;-51
2023/02/19 03:44:10;;;;;;;8.07;0.73;;;;;;;11.83;96.48;100574.09;5069426;28;21012;-49
2023/02/19 03:46:53;;;;;;;0.43;0.43;;;;;;;11.75;96.15;100571.59;5072403;28;20468;-49
2023/02/19 03:49:28;;;;;;;0.50;0.47;;;;;;;11.61;97.22;100588.88;5040335;28;20491;-49
2023/02/19 03:52:15;;;;;;;0.40;0.30;;;;;;;11.81;95.84;100581.25;5067824;28;20445;-50
2023/02/19 03:55:02;;;;;;;0.50;0.40;;;;;;;11.80;96.04;100590.16;5069109;28;20855;-49
2023/02/19 03:57:46;;;;;;;0.40;0.33;;;;;;;11.77;95.73;100596.41;5043200;28;20912;-49
2023/02/19 04:00:16;;;;;;;0.40;0.30;;;;;;;11.83;96.47;100587.41;5069551;28;20446;-49
2023/02/19 04:02:50;;;;;;;0.40;0.30;;;;;;;11.63;96.93;100593.25;5072161;28;20811;-49
2023/02/19 04:05:29;;;;;;;0.43;0.40;;;;;;;11.51;98.00;100588.25;5072078;28;20449;-49
2023/02/19 04:07:59;;;;;;;0.40;0.30;;;;;;;11.64;97.89;100580.81;5068735;28;21022;-50
2023/02/19 04:10:28;;;;;;;0.40;0.30;;;;;;;11.54;97.54;100573.09;5072210;28;20486;-49
2023/02/19 04:13:05;;;;;;;0.40;0.30;;;;;;;11.51;98.66;100567.88;5072020;28;20472;-50
2023/02/19 04:15:33;;;;;;;0.93;0.30;;;;;;;11.47;98.32;100570.63;5071950;28;20886;-50
2023/02/19 04:18:07;;;;;;;0.43;0.40;;;;;;;11.42;97.90;100562.78;5071807;28;20477;-50
2023/02/19 04:20:39;;;;;;;0.70;0.60;;;;;;;11.33;99.60;100568.34;5072220;28;20438;-50
2023/02/19 04:23:06;;;;;;;0.37;0.30;;;;;;;11.49;98.31;100571.47;5070601;28;20503;-49
2023/02/19 04:25:35;;;;;;;0.40;0.30;;;;;;;11.41;98.20;100581.47;5060218;28;20461;-50
2023/02/19 04:28:02;;;;;;;0.40;0.30;;;;;;;11.43;98.58;100591.16;5067096;28;20477;-49
2023/02/19 04:30:28;;;;;;;0.40;0.27;;;;;;;11.38;98.79;100586.88;5064389;28;20510;-50
2023/02/19 04:32:55;;;;;;;0.40;0.30;;;;;;;11.49;97.30;100587.44;5059871;28;20934;-49
2023/02/19 04:35:21;;;;;;;0.97;0.40;;;;;;;11.48;97.25;100588.34;5055345;28;20457;-50
2023/02/19 04:37:48;;;;;;;0.30;0.20;;;;;;;11.43;97.43;100585.81;5075559;28;20531;-49
2023/02/19 04:40:14;;;;;;;0.40;0.30;;;;;;;11.53;97.27;100591.78;5073914;28;20453;-50
2023/02/19 04:42:40;;;;;;;0.53;0.30;;;;;;;11.35;97.64;100598.47;5075676;28;20462;-49
2023/02/19 04:45:07;;;;;;;0.60;0.30;;;;;;;11.32;98.20;100593.22;5075555;28;21003;-50
2023/02/19 04:47:33;;;;;;;0.53;0.33;;;;;;;11.28;97.88;100607.53;5048627;28;20483;-50
2023/02/19 04:50:00;;;;;;;0.30;0.20;;;;;;;11.29;98.36;100603.97;5073521;28;20580;-50
2023/02/19 04:52:26;;;;;;;0.40;0.30;;;;;;;11.25;98.24;100605.84;5049403;28;20548;-50
2023/02/19 04:54:53;;;;;;;0.40;0.30;;;;;;;11.45;97.51;100604.41;5073481;28;20446;-51
2023/02/19 04:57:19;;;;;;;0.30;0.20;;;;;;;11.24;97.80;100608.53;5071479;28;20470;-50
2023/02/19 04:59:46;;;;;;;0.40;0.30;;;;;;;11.23;97.71;100609.41;5069023;28;20469;-51
2023/02/19 05:02:12;;;;;;;0.40;0.20;;;;;;;11.41;97.52;100610.75;5075349;28;20543;-49
2023/02/19 05:04:39;;;;;;;0.40;0.30;;;;;;;11.38;97.28;100610.84;5073994;28;20536;-50
2023/02/19 05:07:06;;;;;;;0.30;0.27;;;;;;;11.32;97.35;100616.31;5062961;28;20470;-51
2023/02/19 05:09:32;;;;;;;0.50;0.30;;;;;;;11.44;97.86;100621.31;5075009;28;21001;-49
2023/02/19 05:11:59;;;;;;;0.50;0.30;;;;;;;11.49;96.22;100616.72;5075230;28;20499;-50
2023/02/19 05:14:25;;;;;;;0.40;0.30;;;;;;;11.42;96.15;100620.47;5074854;28;20964;-49
2023/02/19 05:16:52;;;;;;;0.30;0.20;;;;;;;11.32;96.29;100609.19;5075143;28;20465;-50
2023/02/19 05:19:18;;;;;;;0.40;0.20;;;;;;;11.36;96.61;100605.53;5074627;28;20445;-50
2023/02/19 05:21:44;;;;;;;0.30;0.20;;;;;;;11.38;96.84;100613.50;5062094;28;20464;-50
2023/02/19 05:24:11;;;;;;;0.30;0.20;;;;;;;11.45;97.08;100625.72;5074080;28;20446;-50
2023/02/19 05:26:37;;;;;;;0.40;0.30;;;;;;;11.21;99.09;100617.44;5062469;28;20470;-50
2023/02/19 05:29:04;;;;;;;0.30;0.20;;;;;;;11.12;100.00;100620.38;5070886;28;20511;-51
2023/02/19 05:31:32;;;;;;;0.40;0.30;;;;;;;11.20;100.00;100630.78;5069201;28;20815;-49
2023/02/19 05:33:59;;;;;;;0.30;0.20;;;;;;;11.04;100.00;100640.09;5069444;28;20449;-49
2023/02/19 05:36:26;;;;;;;5.63;0.40;;;;;;;11.08;100.00;100626.66;5063119;28;20477;-48
2023/02/19 05:38:54;;;;;;;0.30;0.20;;;;;;;10.98;100.00;100642.00;5074614;28;20533;-49
2023/02/19 05:41:26;;;;;;;0.70;0.60;;;;;;;11.23;100.00;100638.69;5074640;28;20458;-49
2023/02/19 05:43:52;;;;;;;0.40;0.30;;;;;;;11.16;100.00;100640.66;5074738;28;20454;-49
2023/02/19 05:46:21;;;;;;;0.30;0.20;;;;;;;11.09;100.00;100638.16;5073889;28;20557;-50
2023/02/19 05:48:50;;;;;;;0.60;0.30;;;;;;;11.17;100.00;100641.53;5059094;28;20893;-50
2023/02/19 05:51:20;;;;;;;0.40;0.30;;;;;;;11.13;100.00;100640.75;5064105;28;20493;-49
2023/02/19 05:53:47;;;;;;;1.10;0.70;;;;;;;11.18;100.00;100643.28;5070626;28;20791;-50
2023/02/19 05:56:35;;;;;;;0.57;0.37;;;;;;;10.97;100.00;100652.69;5074120;28;20474;-50
2023/02/19 05:59:13;;;;;;;0.60;0.40;;;;;;;11.05;100.00;100656.00;5058868;28;20453;-49
2023/02/19 06:01:39;;;;;;;0.30;0.20;;;;;;;11.20;100.00;100660.06;5074397;28;20495;-50
2023/02/19 06:04:06;;;;;;;0.30;0.20;;;;;;;11.18;100.00;100670.75;5074059;28;20946;-50
2023/02/19 06:06:32;;;;;;;0.30;0.20;;;;;;;11.27;99.95;100673.19;5073846;28;20473;-49
2023/02/19 06:08:59;;;;;;;0.50;0.20;;;;;;;11.20;98.90;100676.03;5071800;28;20818;-50
2023/02/19 06:11:25;;;;;;;0.40;0.30;;;;;;;11.13;99.36;100677.09;5073928;28;20492;-49
2023/02/19 06:13:52;;;;;;;0.40;0.30;;;;;;;11.25;98.57;100685.66;5074173;28;20549;-49
2023/02/19 06:16:18;;;;;;;0.50;0.27;;;;;;;11.25;98.71;100682.13;5073729;28;20469;-50
2023/02/19 06:18:45;;;;;;;5.67;1.30;;;;;;;11.24;97.73;100691.91;5073857;28;20511;-49
2023/02/19 06:21:11;;;;;;;0.40;0.30;;;;;;;11.13;98.06;100698.41;5073498;28;20448;-49
2023/02/19 06:23:38;;;;;;;0.40;0.30;;;;;;;11.35;98.52;100704.91;5066627;28;20450;-54
2023/02/19 06:26:11;;;;;;;14.07;0.77;;;;;;;11.28;98.24;100711.31;5055238;28;20469;-49
2023/02/19 06:28:38;;;;;;;0.40;0.30;;;;;;;11.22;98.91;100711.44;5055882;28;20450;-48
2023/02/19 06:31:06;;;;;;;0.40;0.30;;;;;;;11.21;99.69;100710.56;5059208;28;20843;-49
2023/02/19 06:33:32;;;;;;;0.30;0.20;;;;;;;11.41;98.73;100714.56;5064062;28;20458;-49
2023/02/19 06:36:02;;;;;;;0.40;0.30;;;;;;;11.37;98.47;100713.72;5059674;28;20508;-48
2023/02/19 06:38:29;;;;;;;0.40;0.30;;;;;;;11.34;98.11;100711.16;5073550;28;20454;-48
2023/02/19 06:41:03;;;;;;;0.53;0.30;;;;;;;11.35;97.49;100712.91;5062852;28;20449;-48
2023/02/19 06:43:30;;;;;;;0.30;0.20;;;;;;;11.30;97.23;100720.13;5062395;28;20476;-48
2023/02/19 06:45:58;;;;;;;0.50;0.40;;;;;;;11.14;97.15;100714.31;5063467;28;20495;-48
2023/02/19 06:48:26;;;;;;;0.40;0.30;;;;;;;11.30;97.36;100701.50;5065864;28;20545;-47
2023/02/19 06:50:53;;;;;;;0.33;0.27;;;;;;;11.27;97.07;100699.81;5067390;28;20483;-48
2023/02/19 06:53:20;;;;;;;1.10;0.43;;;;;;;11.43;96.04;100715.38;5066116;28;20955;-48
2023/02/19 06:56:01;;;;;;;0.50;0.40;;;;;;;11.31;96.16;100721.00;5068865;28;20455;-49
2023/02/19 06:58:28;;;;;;;4.27;0.70;;;;;;;11.28;96.59;100730.81;5056657;28;20455;-49
2023/02/19 07:00:55;;;;;;;0.40;0.30;;;;;;;11.33;96.08;100727.16;5072053;28;20907;-49
2023/02/19 07:03:21;;;;;;;0.93;0.93;;;;;;;11.46;95.08;100736.59;5061238;28;20545;-49
2023/02/19 07:05:48;;;;;;;2.30;0.40;;;;;;;11.45;95.20;100759.69;5072937;28;20473;-48
2023/02/19 07:08:17;;;;;;;0.60;0.40;;;;;;;11.46;95.08;100755.22;5072819;28;20450;-47
2023/02/19 07:10:44;;;;;;;0.87;0.80;;;;;;;11.35;94.86;100770.59;5072797;28;20486;-48
2023/02/19 07:13:11;;;;;;;1.87;0.70;;;;;;;11.51;94.28;100772.84;5072668;28;20441;-48
2023/02/19 07:15:37;;;;;;;2.73;0.77;;;;;;;11.42;94.73;100762.44;5072509;28;20453;-50
2023/02/19 07:18:06;;;;;;;4.67;0.50;;;;;;;11.50;94.48;100772.88;5066684;28;20855;-48
2023/02/19 07:20:32;;;;;;;2.10;0.60;;;;;;;11.55;94.39;100777.19;5053032;28;20442;-49
2023/02/19 07:22:59;;;;;;;0.43;0.33;;;;;;;11.58;94.42;100781.56;5072684;28;20461;-50
2023/02/19 07:25:25;;;;;;;0.40;0.30;;;;;;;11.65;94.00;100779.59;5060199;28;20852;-49
2023/02/19 07:27:52;;;;;;;2.50;0.40;;;;;;;11.61;94.54;100786.78;5065822;28;20472;-49
2023/02/19 07:30:18;;;;;;;0.70;0.40;;;;;;;11.57;96.48;100780.69;5059753;28;21003;-49
2023/02/19 07:32:45;;;;;;;2.23;0.73;;;;;;;11.47;97.75;100776.47;5059199;28;20463;-49
2023/02/19 07:35:11;;;;;;;3.80;0.60;;;;;;;11.52;98.51;100757.75;5072539;28;20450;-49
2023/02/19 07:37:40;;;;;;;1.10;1.03;;;;;;;11.36;99.34;100756.34;5072121;28;20474;-49
2023/02/19 07:40:06;;;;;;;0.40;0.40;;;;;;;11.40;99.79;100761.59;5072278;28;20446;-49
2023/02/19 07:42:33;;;;;;;0.40;0.30;;;;;;;11.38;99.57;100779.41;5067837;28;20458;-49
2023/02/19 07:44:59;;;;;;;0.30;0.20;;;;;;;11.39;99.59;100789.13;5055371;28;20450;-49
2023/02/19 07:47:28;;;;;;;0.50;0.40;;;;;;;11.65;99.00;100803.56;5071262;28;20480;-49
2023/02/19 07:49:55;;;;;;;0.60;0.60;;;;;;;11.66;97.75;100813.34;5045518;28;20447;-49
2023/02/19 07:52:21;;;;;;;0.50;0.30;;;;;;;11.83;97.57;100814.69;5071654;28;20499;-49
2023/02/19 07:54:48;;;;;;;0.83;0.40;;;;;;;11.72;96.96;100821.16;5072335;28;20450;-48
2023/02/19 07:57:14;;;;;;;0.40;0.30;;;;;;;11.81;97.14;100823.63;5068816;28;20490;-49
2023/02/19 07:59:40;;;;;;;2.63;0.77;;;;;;;11.94;95.85;100829.53;5065437;28;20457;-48
2023/02/19 08:05:05;;;;;;;0.40;0.30;;;;;;;11.97;95.26;100825.00;5072222;28;20521;-49
2023/02/19 08:07:35;;;;;;;0.40;0.30;;;;;;;11.89;94.85;100823.41;5072132;28;20469;-49
2023/02/19 08:15:40;;;;;;;0.40;0.30;;;;;;;11.89;94.19;100829.63;5067045;28;20446;-48
2023/02/19 08:18:08;;;;;;;11.43;0.70;;;;;;;11.86;94.44;100829.72;5075927;28;20534;-49
2023/02/19 08:20:35;;;;;;;5.93;0.83;;;;;;;11.81;94.41;100832.50;5076294;28;20445;-48
2023/02/19 08:23:01;;;;;;;1.07;0.60;;;;;;;11.94;94.31;100842.84;5076145;28;20453;-48
2023/02/19 08:25:28;;;;;;;0.43;0.43;;;;;;;11.93;94.04;100841.09;5061628;28;20459;-49
2023/02/19 08:27:55;;;;;;;0.80;0.70;;;;;;;11.78;96.58;100850.28;5064534;28;20472;-49
2023/02/19 08:30:21;;;;;;;0.50;0.40;;;;;;;11.93;97.25;100855.28;5062219;28;20486;-49
2023/02/19 08:32:48;;;;;;;1.60;0.80;;;;;;;11.68;97.95;100865.63;5062788;28;20477;-48
2023/02/19 08:35:14;;;;;;;0.80;0.50;;;;;;;11.61;99.00;100845.38;5075996;28;20473;-48
2023/02/19 08:37:41;;;;;;;1.33;0.70;;;;;;;11.85;98.41;100849.28;5074134;28;20480;-48
2023/02/19 08:40:08;;;;;;;1.53;0.50;;;;;;;11.81;98.64;100847.59;5050580;28;20446;-47
2023/02/19 08:42:34;;;;;;;6.37;0.60;;;;;;;11.73;98.27;100836.22;5075405;28;20832;-47
2023/02/19 08:45:00;;;;;;;0.90;0.50;;;;;;;11.76;98.29;100853.00;5075526;28;20450;-51
2023/02/19 08:47:27;;;;;;;3.77;2.30;;;;;;;11.72;98.90;100853.13;5057874;28;20469;-47
2023/02/19 08:49:53;;;;;;;0.40;0.30;;;;;;;11.73;98.02;100865.50;5060030;28;20863;-50
2023/02/19 08:52:20;;;;;;;2.00;0.87;;;;;;;11.73;98.00;100863.72;5057920;28;20488;-49
2023/02/19 08:54:46;;;;;;;0.30;0.20;;;;;;;11.77;97.25;100880.50;5067665;28;20860;-48
2023/02/19 08:57:12;;;;;;;6.00;0.77;;;;;;;12.13;96.62;100879.63;5072661;28;21026;-51
2023/02/19 08:59:39;;;;;;;0.50;0.50;;;;;;;12.13;96.54;100894.75;5055529;28;20528;-48
2023/02/19 09:02:05;;;;;;;0.50;0.30;;;;;;;12.04;95.99;100889.63;5060984;28;20461;-47
2023/02/19 09:04:32;;;;;;;0.40;0.30;;;;;;;12.20;95.43;100892.78;5075394;28;20454;-48
2023/02/19 09:06:58;;;;;;;0.40;0.40;;;;;;;12.25;94.71;100891.78;5064184;28;20469;-48
2023/02/19 09:09:25;;;;;;;2.73;1.20;;;;;;;12.14;93.13;100899.16;5058870;28;20451;-49
2023/02/19 09:11:51;;;;;;;1.00;1.00;;;;;;;12.32;92.83;100901.34;5063614;28;20513;-49
2023/02/19 09:14:17;;;;;;;1.93;0.70;;;;;;;12.38;92.11;100903.88;5062748;28;20931;-48
2023/02/19 09:16:44;;;;;;;2.53;1.20;;;;;;;12.41;92.63;100902.91;5071772;28;20877;-48
2023/02/19 09:19:10;;;;;;;0.53;0.40;;;;;;;12.44;92.54;100902.81;5073357;28;20951;-49
2023/02/19 09:21:37;;;;;;;7.50;1.07;;;;;;;12.39;92.50;100904.75;5069342;28;20438;-48
2023/02/19 09:24:03;;;;;;;0.50;0.37;;;;;;;12.34;91.77;100920.88;5062730;28;20455;-49
2023/02/19 09:26:30;;;;;;;1.33;0.40;;;;;;;12.43;91.22;100941.06;5061177;28;20549;-48
2023/02/19 09:28:56;;;;;;;0.47;0.37;;;;;;;12.44;91.82;100942.81;5070055;28;20461;-49
2023/02/19 09:31:22;;;;;;;2.17;0.50;;;;;;;12.60;90.98;100948.63;5062799;28;20540;-47
2023/02/19 09:33:49;;;;;;;0.60;0.43;;;;;;;12.68;90.86;100955.53;5068219;28;20545;-49
2023/02/19 09:36:17;;;;;;;0.40;0.30;;;;;;;12.83;90.23;100948.03;5075316;22;20468;-46
2023/02/19 09:38:44;;;;;;;0.97;0.43;;;;;;;12.89;90.67;100950.53;5050145;28;21004;-48
2023/02/19 09:41:24;;;;;;;0.70;0.63;;;;;;;12.65;90.18;100942.28;5041101;28;20547;-49
2023/02/19 09:43:51;;;;;;;1.17;1.17;;;;;;;12.83;89.38;100938.22;5040730;28;20481;-48
2023/02/19 09:46:31;;;;;;;1.43;0.30;;;;;;;12.85;89.24;100947.06;5051167;28;20482;-48
2023/02/19 09:49:12;;;;;;;0.60;0.57;;;;;;;12.75;87.38;100951.78;5053439;28;20489;-48
2023/02/19 09:51:42;;;;;;;2.50;0.80;;;;;;;12.77;88.22;100956.19;5047064;28;20541;-49
2023/02/19 09:54:19;;;;;;;3.50;0.87;;;;;;;12.89;87.63;100958.53;5041492;28;20902;-50
2023/02/19 09:56:46;;;;;;;4.73;0.80;;;;;;;12.85;87.75;100959.53;5040904;28;20474;-49
2023/02/19 09:59:21;;;;;;;1.70;1.07;;;;;;;12.93;87.21;100960.19;5054026;28;20509;-50
2023/02/19 10:01:56;;;;;;;2.70;0.50;;;;;;;12.71;86.87;100959.88;5051322;28;20455;-50
2023/02/19 10:04:22;;;;;;;2.50;0.87;;;;;;;12.92;87.36;100959.31;5025142;28;20454;-50
2023/02/19 10:06:50;;;;;;;0.60;0.60;;;;;;;13.04;86.21;100953.66;5046930;28;20468;-50
2023/02/19 10:09:22;;;;;;;0.63;0.40;;;;;;;13.19;86.32;100960.38;5037973;28;20422;-50
2023/02/19 10:11:52;;;;;;;0.50;0.40;;;;;;;13.21;85.15;100960.34;5050343;28;20487;-49
2023/02/19 10:14:27;;;;;;;0.43;0.33;;;;;;;13.18;85.01;100963.97;5041159;28;20502;-48
2023/02/19 10:16:58;;;;;;;0.57;0.37;;;;;;;13.20;85.30;100958.59;5034402;28;20442;-49
2023/02/19 10:19:24;;;;;;;4.93;0.50;;;;;;;13.40;84.85;100966.88;5048044;28;20447;-48
2023/02/19 10:21:51;;;;;;;0.70;0.40;;;;;;;13.44;85.79;100968.56;5024726;28;20454;-48
2023/02/19 10:24:25;;;;;;;1.17;1.07;;;;;;;13.56;84.83;100975.31;5046015;28;20443;-48
2023/02/19 10:26:52;;;;;;;0.73;0.60;;;;;;;13.61;84.31;100966.25;5064351;28;20462;-50
2023/02/19 10:29:20;;;;;;;1.90;0.83;;;;;;;13.54;83.39;100967.34;5051005;28;20452;-48
2023/02/19 10:31:47;;;;;;;4.23;0.90;;;;;;;13.51;81.66;100972.78;5043943;28;20494;-49
2023/02/19 10:34:21;;;;;;;0.60;0.60;;;;;;;13.61;82.32;100971.59;5055149;28;20475;-50
2023/02/19 10:36:49;;;;;;;1.50;0.60;;;;;;;13.71;80.92;100984.69;5052297;28;20536;-53
2023/02/19 10:39:38;;;;;;;0.40;0.30;;;;;;;13.47;79.77;100979.16;5041042;28;20474;-49
2023/02/19 10:42:04;;;;;;;0.50;0.37;;;;;;;13.41;79.31;100992.66;5040653;28;20451;-49
2023/02/19 10:44:41;;;;;;;3.23;0.70;;;;;;;13.63;80.15;100987.59;5044002;28;20458;-50
2023/02/19 10:47:16;;;;;;;0.87;0.40;;;;;;;13.57;79.52;101002.00;5047477;28;20537;-48
2023/02/19 10:49:44;;;;;;;0.40;0.30;;;;;;;13.43;79.06;101005.97;5044542;28;20447;-48
2023/02/19 10:52:29;;;;;;;0.90;0.70;;;;;;;13.48;80.31;101018.28;5046447;28;20490;-48
2023/02/19 10:55:27;;;;;;;1.93;0.50;;;;;;;13.62;80.63;101016.09;5034072;28;20510;-48
2023/02/19 10:57:54;;;;;;;0.50;0.47;;;;;;;13.65;79.86;101023.13;5049985;28;20517;-48
2023/02/19 11:00:29;;;;;;;0.60;0.50;;;;;;;13.16;80.98;101032.53;5047844;28;20451;-48
2023/02/19 11:03:19;;;;;;;1.40;0.60;;;;;;;13.10;81.25;101035.34;5046285;28;20447;-49
2023/02/19 11:06:01;;;;;;;1.00;0.60;;;;;;;13.10;81.79;101042.47;5043071;28;20945;-48
2023/02/19 11:08:28;;;;;;;1.00;0.60;;;;;;;13.12;81.70;101046.84;5039610;28;20465;-48
2023/02/19 11:10:55;;;;;;;0.60;0.50;;;;;;;13.32;82.02;101035.66;5041121;28;20470;-49
2023/02/19 11:13:31;;;;;;;0.43;0.40;;;;;;;13.29;82.66;101028.63;5046731;28;20451;-49
2023/02/19 11:15:58;;;;;;;1.00;1.00;;;;;;;13.30;81.78;101029.50;5046231;28;20442;-48
2023/02/19 11:18:29;;;;;;;0.80;0.50;;;;;;;13.13;82.52;101024.56;5039820;28;20490;-48
2023/02/19 11:21:02;;;;;;;0.60;0.50;;;;;;;13.23;81.53;101007.44;5039392;28;20450;-49
2023/02/19 11:23:43;;;;;;;6.53;0.50;;;;;;;13.36;81.97;100989.25;5044334;28;20443;-49
2023/02/19 11:26:21;;;;;;;1.87;1.77;;;;;;;13.52;81.47;100987.00;5063268;28;20439;-47
2023/02/19 11:29:21;;;;;;;30.00;1.40;;;;;;;13.78;79.58;101008.50;5052643;28;20955;-49
2023/02/19 11:31:47;;;;;;;4.00;0.60;;;;;;;14.12;79.59;101012.81;5042792;28;20560;-49
2023/02/19 11:34:19;;;;;;;0.50;0.40;;;;;;;14.41;78.37;101018.09;5049056;28;20447;-50
2023/02/19 11:37:06;;;;;;;1.37;1.03;;;;;;;14.50;77.11;101004.44;5043436;28;20474;-48
2023/02/19 11:39:33;;;;;;;0.50;0.50;;;;;;;14.21;76.12;101015.19;5045359;28;20952;-49
2023/02/19 11:42:37;;;;;;;0.90;0.77;;;;;;;14.31;76.26;101000.59;5045863;28;20446;-48
2023/02/19 11:45:21;;;;;;;0.73;0.70;;;;;;;14.29;75.93;101004.25;5044881;28;20427;-48
2023/02/19 11:47:57;;;;;;;0.60;0.57;;;;;;;14.30;76.26;101012.22;5040713;28;20897;-48
2023/02/19 11:50:48;;;;;;;1.80;0.87;;;;;;;14.37;75.52;101011.06;5039064;28;20443;-48
2023/02/19 11:53:21;;;;;;;0.80;0.60;;;;;;;14.37;75.32;101011.06;5039141;28;20944;-49
2023/02/19 11:56:13;;;;;;;0.90;0.90;;;;;;;14.62;75.30;101012.97;5040001;28;20447;-49
2023/02/19 11:59:33;;;;;;;1.57;0.40;;;;;;;14.62;74.46;101023.69;5049049;28;20479;-49
2023/02/19 12:02:30;;;;;;;0.60;0.47;;;;;;;14.49;73.63;101033.91;4990780;28;20783;-49
2023/02/19 12:05:15;;;;;;;5.70;0.70;;;;;;;14.33;74.12;101040.66;5038942;28;20497;-49
2023/02/19 12:08:16;;;;;;;0.40;0.30;;;;;;;14.37;74.67;101043.16;5040323;28;20467;-48
2023/02/19 12:10:45;;;;;;;0.50;0.40;;;;;;;14.23;73.84;101053.44;5042636;28;20446;-49
2023/02/19 12:13:17;;;;;;;30.20;0.87;;;;;;;13.90;75.46;101042.00;5021139;28;20487;-48